Time;durP1;ratioP1;P1;durP2;ratioP2;P2;SDS_P1;SDS_P2;PMS_P1;PMS_P2;Temp;Humidity;BMP_temperature;BMP_pressure;BME280_temperature;BME280_humidity;BME280_pressure;Samples;Min_cycle;Max_cycle;Signal;HPM_P1;HPM_P2
2023/10/24 00:00:20;;;;;;;4.30;3.80;;;;;;;10.30;100.00;100103.69;4953800;28;20095;-79
2023/10/24 00:02:45;;;;;;;6.15;4.28;;;;;;;10.34;100.00;100101.38;4955534;28;20035;-80
2023/10/24 00:05:11;;;;;;;5.75;3.88;;;;;;;10.31;100.00;100092.72;4961766;28;20023;-80
2023/10/24 00:07:39;;;;;;;5.70;3.80;;;;;;;10.31;100.00;100091.88;4958772;28;20048;-80
2023/10/24 00:10:04;;;;;;;5.63;3.83;;;;;;;10.32;100.00;100088.16;4956365;28;20447;-79
2023/10/24 00:12:30;;;;;;;4.63;3.70;;;;;;;10.30;100.00;100079.47;4958797;28;20114;-79
2023/10/24 00:14:56;;;;;;;5.10;3.40;;;;;;;10.35;100.00;100092.28;4953891;28;20070;-79
2023/10/24 00:17:21;;;;;;;5.13;3.60;;;;;;;10.39;100.00;100086.31;4945299;28;20052;-81
2023/10/24 00:19:47;;;;;;;5.78;3.40;;;;;;;10.45;100.00;100090.00;4952509;28;20464;-81
2023/10/24 00:22:12;;;;;;;3.92;3.17;;;;;;;10.42;100.00;100082.34;4951585;28;20460;-80
2023/10/24 00:24:40;;;;;;;6.78;3.60;;;;;;;10.46;100.00;100080.88;4952435;28;20032;-81
2023/10/24 00:27:08;;;;;;;5.00;3.47;;;;;;;10.45;100.00;100079.22;4954154;28;20027;-81
2023/10/24 00:29:33;;;;;;;3.72;3.33;;;;;;;10.51;100.00;100074.84;4957355;28;20034;-80
2023/10/24 00:31:59;;;;;;;5.07;3.40;;;;;;;10.53;100.00;100078.16;4954639;28;20165;-80
2023/10/24 00:34:24;;;;;;;3.72;3.15;;;;;;;10.56;100.00;100077.72;4949828;28;20031;-80
2023/10/24 00:36:50;;;;;;;4.88;3.20;;;;;;;10.58;100.00;100078.34;4949800;28;20034;-80
2023/10/24 00:39:15;;;;;;;6.53;3.00;;;;;;;10.56;100.00;100083.09;4948945;28;20086;-80
2023/10/24 00:41:41;;;;;;;5.57;3.10;;;;;;;10.56;100.00;100069.66;4951737;28;20027;-80
2023/10/24 00:44:07;;;;;;;5.25;3.35;;;;;;;10.51;100.00;100070.28;4955961;28;20026;-80
2023/10/24 00:46:33;;;;;;;4.75;3.38;;;;;;;10.50;100.00;100063.25;4955661;28;20019;-80
2023/10/24 00:48:58;;;;;;;6.70;3.83;;;;;;;10.54;100.00;100069.84;4952649;28;20070;-80
2023/10/24 00:51:24;;;;;;;4.65;3.35;;;;;;;10.55;100.00;100065.31;4952502;28;20472;-80
2023/10/24 00:53:49;;;;;;;5.80;3.60;;;;;;;10.54;100.00;100069.03;4953621;28;20046;-80
2023/10/24 00:56:14;;;;;;;6.15;3.42;;;;;;;10.63;100.00;100066.91;4939087;29;20035;-80
2023/10/24 00:58:40;;;;;;;7.07;3.83;;;;;;;10.56;100.00;100057.00;4936395;28;20123;-80
2023/10/24 01:01:07;;;;;;;7.00;3.60;;;;;;;10.55;100.00;100070.69;4943420;29;20023;-80
2023/10/24 01:03:32;;;;;;;7.43;3.50;;;;;;;10.58;100.00;100063.00;4945480;28;20287;-80
2023/10/24 01:05:58;;;;;;;4.97;3.42;;;;;;;10.64;100.00;100068.56;4935978;29;20487;-81
2023/10/24 01:08:23;;;;;;;7.22;3.70;;;;;;;10.67;100.00;100068.94;4951956;28;20019;-81
2023/10/24 01:10:49;;;;;;;4.60;3.60;;;;;;;10.69;100.00;100066.03;4954182;28;20082;-80
2023/10/24 01:13:14;;;;;;;7.05;3.67;;;;;;;10.67;100.00;100057.38;4934320;28;20025;-81
2023/10/24 01:15:39;;;;;;;5.57;4.05;;;;;;;10.63;100.00;100062.34;4962023;28;20427;-81
2023/10/24 01:18:05;;;;;;;6.80;3.72;;;;;;;10.73;100.00;100068.09;4961936;28;20105;-80
2023/10/24 01:20:30;;;;;;;8.18;4.00;;;;;;;10.71;100.00;100075.56;4962275;28;20503;-81
2023/10/24 01:22:55;;;;;;;7.28;4.15;;;;;;;10.65;100.00;100065.66;4959888;28;20031;-81
2023/10/24 01:25:21;;;;;;;6.22;4.00;;;;;;;10.67;100.00;100063.56;4956323;28;20392;-81
2023/10/24 01:27:53;;;;;;;7.30;4.30;;;;;;;10.67;100.00;100068.13;4923142;28;20043;-81
2023/10/24 01:30:19;;;;;;;5.03;3.97;;;;;;;10.64;100.00;100063.19;4954955;28;20027;-81
2023/10/24 01:32:44;;;;;;;7.22;4.30;;;;;;;10.66;100.00;100061.09;4953720;28;20035;-81
2023/10/24 01:35:09;;;;;;;6.28;4.75;;;;;;;10.64;100.00;100050.53;4951687;28;20032;-80
2023/10/24 01:37:35;;;;;;;7.93;4.72;;;;;;;10.61;100.00;100053.66;4958191;28;20090;-81
2023/10/24 01:40:02;;;;;;;6.53;4.80;;;;;;;10.61;100.00;100053.66;4956199;28;20043;-80
2023/10/24 01:42:28;;;;;;;7.13;4.75;;;;;;;10.64;100.00;100055.91;4960205;28;20054;-81
2023/10/24 01:44:53;;;;;;;10.68;5.05;;;;;;;10.69;100.00;100049.88;4956461;28;20443;-81
2023/10/24 01:47:19;;;;;;;7.03;5.47;;;;;;;10.66;100.00;100045.75;4955846;28;20045;-81
2023/10/24 01:49:44;;;;;;;6.65;4.90;;;;;;;10.69;100.00;100049.88;4961642;28;20661;-80
2023/10/24 01:52:10;;;;;;;8.38;5.45;;;;;;;10.74;100.00;100053.59;4952547;28;20042;-81
2023/10/24 01:54:35;;;;;;;9.93;5.53;;;;;;;10.81;100.00;100041.94;4947958;28;20075;-81
2023/10/24 01:57:01;;;;;;;6.30;4.82;;;;;;;10.74;100.00;100048.22;4945003;28;20019;-81
2023/10/24 01:59:26;;;;;;;7.30;5.07;;;;;;;10.80;100.00;100049.19;4951497;28;20035;-81
2023/10/24 02:01:51;;;;;;;8.30;5.18;;;;;;;10.86;100.00;100052.88;4955200;28;20038;-81
2023/10/24 02:04:17;;;;;;;7.78;5.25;;;;;;;10.94;100.00;100049.94;4953331;28;20519;-82
2023/10/24 02:06:42;;;;;;;7.82;5.20;;;;;;;11.01;100.00;100048.00;4951503;28;20035;-82
2023/10/24 02:09:11;;;;;;;8.65;5.43;;;;;;;11.01;100.00;100048.00;4955639;28;20025;-81
2023/10/24 02:11:36;;;;;;;6.25;4.68;;;;;;;11.05;100.00;100043.81;4949544;28;20051;-81
2023/10/24 02:14:01;;;;;;;5.78;4.97;;;;;;;11.11;100.00;100052.06;4950335;28;20027;-82
2023/10/24 02:16:27;;;;;;;6.57;5.00;;;;;;;11.10;100.00;100040.47;4952577;28;20031;-81
2023/10/24 02:18:52;;;;;;;7.38;4.95;;;;;;;11.12;100.00;100046.44;4952038;28;20411;-81
2023/10/24 02:21:20;;;;;;;6.20;4.68;;;;;;;11.12;100.00;100049.16;4955460;28;20089;-81
2023/10/24 02:23:45;;;;;;;5.30;4.80;;;;;;;11.15;100.00;100050.56;4954412;28;20031;-81
2023/10/24 02:26:14;;;;;;;5.80;5.18;;;;;;;11.15;100.00;100043.31;4957658;28;20047;-81
2023/10/24 02:28:40;;;;;;;7.72;4.70;;;;;;;11.16;100.00;100038.75;4951238;28;20042;-81
2023/10/24 02:31:05;;;;;;;5.32;4.82;;;;;;;11.15;100.00;100037.09;4951838;28;20062;-81
2023/10/24 02:33:31;;;;;;;5.07;4.57;;;;;;;11.16;100.00;100036.06;4947802;28;20023;-80
2023/10/24 02:36:06;;;;;;;6.47;4.90;;;;;;;11.14;100.00;100040.84;4952406;28;20078;-81
2023/10/24 02:38:32;;;;;;;5.78;4.60;;;;;;;11.15;100.00;100031.72;4950683;28;20038;-81
2023/10/24 02:40:57;;;;;;;7.68;4.88;;;;;;;11.15;100.00;100037.09;4951266;28;20035;-81
2023/10/24 02:43:25;;;;;;;5.63;4.82;;;;;;;11.09;100.00;100027.22;4951713;28;21752;-80
2023/10/24 02:45:50;;;;;;;5.93;4.30;;;;;;;11.13;100.00;100031.94;4930920;29;20023;-81
2023/10/24 02:48:16;;;;;;;6.75;5.03;;;;;;;11.12;100.00;100042.94;4951881;28;20490;-80
2023/10/24 02:50:42;;;;;;;5.68;4.72;;;;;;;11.14;100.00;100043.53;4953909;28;20031;-80
2023/10/24 02:53:07;;;;;;;6.32;4.47;;;;;;;11.18;100.00;100037.50;4956339;28;20035;-80
2023/10/24 02:55:35;;;;;;;5.22;4.53;;;;;;;11.19;100.00;100041.84;4947504;28;20031;-81
2023/10/24 02:58:01;;;;;;;6.70;4.88;;;;;;;11.07;100.00;100040.91;4953977;28;20095;-80
2023/10/24 03:00:26;;;;;;;6.13;4.50;;;;;;;11.15;100.00;100045.19;4951718;28;20615;-81
2023/10/24 03:02:52;;;;;;;6.75;4.50;;;;;;;11.19;100.00;100043.69;4959082;28;20035;-81
2023/10/24 03:05:18;;;;;;;6.20;4.30;;;;;;;11.17;100.00;100046.63;4956187;28;20042;-81
2023/10/24 03:07:43;;;;;;;5.53;4.47;;;;;;;11.18;100.00;100050.97;4951881;28;20035;-81
2023/10/24 03:10:09;;;;;;;4.88;4.15;;;;;;;11.10;100.00;100051.22;4955725;28;20023;-80
2023/10/24 03:12:34;;;;;;;6.10;3.90;;;;;;;11.15;100.00;100058.66;4949940;28;20037;-81
2023/10/24 03:15:02;;;;;;;4.78;3.72;;;;;;;11.20;100.00;100051.56;4954043;28;20035;-81
2023/10/24 03:17:28;;;;;;;4.45;3.75;;;;;;;11.20;100.00;100061.50;4954077;28;20043;-80
2023/10/24 03:19:55;;;;;;;5.03;4.30;;;;;;;11.17;100.00;100048.47;4956405;28;20043;-80
2023/10/24 03:22:23;;;;;;;4.45;4.05;;;;;;;11.17;100.00;100053.88;4954640;28;20051;-80
2023/10/24 03:27:26;;;;;;;6.07;4.38;;;;;;;11.19;100.00;100059.88;5402086;23;20066;-80
2023/10/24 03:29:51;;;;;;;4.60;4.20;;;;;;;11.11;100.00;100057.47;4934481;29;20023;-80
2023/10/24 03:32:17;;;;;;;5.45;4.40;;;;;;;11.11;100.00;100052.88;4937462;29;20394;-79
2023/10/24 03:34:45;;;;;;;5.13;4.10;;;;;;;11.08;100.00;100053.31;4935893;29;20397;-80
2023/10/24 03:37:10;;;;;;;4.55;3.90;;;;;;;11.03;100.00;100059.38;4937696;29;20020;-80
2023/10/24 03:39:36;;;;;;;4.47;3.90;;;;;;;11.09;100.00;100051.47;4936849;29;20384;-80
2023/10/24 03:42:02;;;;;;;3.70;3.30;;;;;;;11.15;100.00;100053.25;4937559;29;20091;-79
2023/10/24 03:44:27;;;;;;;3.92;3.28;;;;;;;11.15;100.00;100053.25;4939990;29;20035;-79
2023/10/24 03:46:53;;;;;;;4.38;3.35;;;;;;;11.12;100.00;100053.72;4939011;29;20122;-80
2023/10/24 03:49:18;;;;;;;4.35;3.28;;;;;;;11.16;100.00;100044.13;4938080;29;20023;-80
2023/10/24 03:51:43;;;;;;;3.70;3.15;;;;;;;11.13;100.00;100050.78;4936404;29;20038;-80
2023/10/24 03:54:09;;;;;;;3.40;3.10;;;;;;;11.13;100.00;100044.56;4939124;29;20043;-82
2023/10/24 03:56:35;;;;;;;3.20;2.97;;;;;;;11.16;100.00;100039.59;4937629;29;20102;-78
2023/10/24 03:59:01;;;;;;;4.35;2.90;;;;;;;11.17;100.00;100043.09;4941746;29;20040;-77
2023/10/24 04:01:26;;;;;;;3.47;3.17;;;;;;;11.12;100.00;100041.06;4942453;29;20027;-78
2023/10/24 04:03:52;;;;;;;3.40;3.10;;;;;;;11.13;100.00;100044.56;4941380;29;20375;-79
2023/10/24 04:06:17;;;;;;;3.30;3.00;;;;;;;11.15;100.00;100048.72;4929009;29;20045;-80
2023/10/24 04:08:43;;;;;;;3.60;2.90;;;;;;;11.16;100.00;100047.66;4936320;29;20097;-83
2023/10/24 04:11:15;;;;;;;3.33;3.03;;;;;;;11.15;100.00;100043.31;4940759;29;20079;-83
2023/10/24 04:13:41;;;;;;;4.30;3.08;;;;;;;11.14;100.00;100040.84;4938438;28;20027;-85
2023/10/24 04:16:06;;;;;;;3.47;2.90;;;;;;;11.16;100.00;100053.06;4936740;29;20042;-86
2023/10/24 04:18:33;;;;;;;3.97;3.05;;;;;;;11.16;100.00;100055.75;4973770;23;20051;-85
2023/10/24 04:21:01;;;;;;;4.57;2.88;;;;;;;11.14;100.00;100044.38;4972602;28;20027;-85
2023/10/24 04:23:27;;;;;;;3.35;3.05;;;;;;;11.16;100.00;100049.53;4949983;28;20125;-85
2023/10/24 04:25:52;;;;;;;3.53;3.22;;;;;;;11.10;100.00;100050.44;4968982;28;20076;-86
2023/10/24 04:30:54;;;;;;;3.63;3.30;;;;;;;11.12;100.00;100053.72;5255330;23;20047;-86
2023/10/24 04:33:50;;;;;;;3.65;3.35;;;;;;;11.12;100.00;100048.34;4963146;28;20035;-85
2023/10/24 04:36:28;;;;;;;3.75;3.40;;;;;;;10.99;100.00;100033.91;4960660;28;20030;-85
2023/10/24 04:38:57;;;;;;;3.83;3.53;;;;;;;10.98;100.00;100021.50;4961881;28;20069;-85
2023/10/24 04:41:31;;;;;;;4.13;3.80;;;;;;;10.92;100.00;100023.19;4955548;28;20038;-85
2023/10/24 04:44:03;;;;;;;4.57;3.80;;;;;;;10.91;100.00;100021.56;4962683;28;20038;-85
2023/10/24 04:46:50;;;;;;;4.32;3.92;;;;;;;10.87;100.00;100025.72;4962203;28;20028;-85
2023/10/24 04:49:29;;;;;;;5.95;4.28;;;;;;;10.81;100.00;100025.78;4958959;28;20039;-86
2023/10/24 04:51:54;;;;;;;6.00;4.07;;;;;;;10.84;100.00;100019.97;4969490;28;20050;-87
2023/10/24 04:54:27;;;;;;;4.78;4.30;;;;;;;10.87;100.00;100020.34;4972904;28;20027;-86
2023/10/24 04:57:02;;;;;;;;;;;;;;;;;;;;;
2023/10/24 04:59:44;;;;;;;5.20;4.70;;;;;;;10.83;100.00;100018.31;4895087;29;20049;-86
2023/10/24 05:02:28;;;;;;;5.55;4.60;;;;;;;10.87;100.00;100014.13;4894862;29;20036;-85
2023/10/24 05:05:05;;;;;;;6.13;4.70;;;;;;;10.82;100.00;100005.88;4894528;29;20040;-86
2023/10/24 05:07:34;;;;;;;5.45;4.95;;;;;;;10.80;100.00;100013.34;4876703;29;20096;-85
2023/10/24 05:10:06;;;;;;;5.32;4.82;;;;;;;10.82;100.00;100011.28;4967973;28;20039;-86
2023/10/24 05:12:31;;;;;;;6.88;5.05;;;;;;;10.84;100.00;100019.97;4968428;28;20236;-86
2023/10/24 05:15:06;;;;;;;5.70;5.10;;;;;;;10.79;100.00;100017.09;4968051;28;20528;-86
2023/10/24 05:17:31;;;;;;;5.30;4.80;;;;;;;10.80;100.00;100027.66;4970677;28;20102;-86
2023/10/24 05:20:06;;;;;;;5.53;5.03;;;;;;;10.77;100.00;100025.41;4965574;28;20529;-86
2023/10/24 05:22:32;;;;;;;7.05;5.50;;;;;;;10.83;100.00;100035.31;4981523;28;20085;-86
2023/10/24 05:24:57;;;;;;;6.03;5.43;;;;;;;10.82;100.00;100027.44;4981906;28;20161;-85
2023/10/24 05:27:31;;;;;;;6.75;5.03;;;;;;;10.83;100.00;100023.69;4975784;28;20027;-86
2023/10/24 05:29:57;;;;;;;5.55;5.05;;;;;;;10.73;100.00;100030.41;4968116;28;20145;-86
2023/10/24 05:32:37;;;;;;;6.10;5.50;;;;;;;10.73;100.00;100022.34;4969292;28;20047;-86
2023/10/24 05:35:18;;;;;;;6.10;5.22;;;;;;;10.79;100.00;100015.25;4974416;28;20026;-86
2023/10/24 05:37:43;;;;;;;6.20;5.00;;;;;;;10.73;100.00;100014.25;4957688;28;20109;-86
2023/10/24 05:40:09;;;;;;;8.98;5.38;;;;;;;10.76;100.00;100019.22;4978995;28;20030;-86
2023/10/24 05:42:36;;;;;;;5.80;5.22;;;;;;;10.67;100.00;100022.38;4969396;28;20053;-86
2023/10/24 05:45:10;;;;;;;6.70;5.15;;;;;;;10.73;100.00;100011.56;4956176;28;20233;-86
2023/10/24 05:47:36;;;;;;;5.82;5.22;;;;;;;10.69;100.00;100017.56;4976516;28;20070;-86
2023/10/24 05:50:39;;;;;;;6.75;5.40;;;;;;;10.63;100.00;100003.13;4960522;28;20038;-86
2023/10/24 05:53:04;;;;;;;5.85;5.25;;;;;;;10.69;100.00;100013.03;4964079;28;20114;-86
2023/10/24 05:55:29;;;;;;;5.82;5.22;;;;;;;10.63;100.00;100013.09;4974589;28;20027;-85
2023/10/24 05:57:58;;;;;;;6.07;5.47;;;;;;;10.67;100.00;100019.69;4964165;28;20054;-87
2023/10/24 06:00:29;;;;;;;6.25;5.30;;;;;;;10.65;100.00;100016.38;4960538;28;20086;-87
2023/10/24 06:03:13;;;;;;;7.80;5.30;;;;;;;10.57;100.00;100012.09;4959841;28;20019;-87
2023/10/24 06:05:40;;;;;;;5.65;5.15;;;;;;;10.57;100.00;100009.41;4955421;28;20035;-87
2023/10/24 06:08:30;;;;;;;7.15;5.00;;;;;;;10.65;100.00;100013.69;4960440;28;20335;-87
2023/10/24 06:11:00;;;;;;;5.30;4.80;;;;;;;10.61;100.00;100013.28;4964515;28;20089;-88
2023/10/24 06:16:06;;;;;;;5.90;4.97;;;;;;;10.67;100.00;100031.25;4911535;23;20067;-89
2023/10/24 06:18:31;;;;;;;5.63;5.03;;;;;;;10.66;100.00;100034.19;4896668;29;20039;-87
2023/10/24 06:21:13;;;;;;;6.03;5.43;;;;;;;10.58;100.00;100037.97;4895814;29;20033;-86
2023/10/24 06:23:38;;;;;;;7.10;5.63;;;;;;;10.57;100.00;100029.06;4898114;29;20036;-82
2023/10/24 06:29:02;;;;;;;7.22;5.93;;;;;;;10.64;100.00;100042.47;4867761;29;20056;-90
2023/10/24 06:34:08;;;;;;;6.90;6.15;;;;;;;10.60;100.00;100052.00;4965123;23;20054;-90
2023/10/24 06:36:50;;;;;;;7.07;5.75;;;;;;;10.54;100.00;100045.63;4958131;28;20030;-90
2023/10/24 06:39:31;;;;;;;7.30;6.03;;;;;;;10.53;100.00;100040.47;4959178;28;20046;-91
2023/10/24 06:45:29;;;;;;;6.57;5.88;;;;;;;10.49;100.00;100042.78;4962107;23;20055;-91
2023/10/24 06:47:54;;;;;;;6.78;5.53;;;;;;;10.62;100.00;100047.22;4876997;29;20137;-92
2023/10/24 06:50:41;;;;;;;6.00;5.40;;;;;;;10.67;100.00;100042.03;4880977;29;20048;-91
2023/10/24 06:53:28;;;;;;;7.65;6.00;;;;;;;10.65;100.00;100054.88;4881670;29;20045;-92
2023/10/24 06:56:00;;;;;;;8.30;5.88;;;;;;;10.67;100.00;100057.38;4887082;29;20058;-91
2023/10/24 06:58:28;;;;;;;6.32;5.55;;;;;;;10.65;100.00;100056.75;4882289;29;20049;-92
2023/10/24 07:01:37;;;;;;;6.15;5.55;;;;;;;10.66;100.00;100059.22;4890655;29;20041;-92
2023/10/24 07:04:33;;;;;;;6.70;5.22;;;;;;;10.63;100.00;100045.38;4874808;29;20045;-92
2023/10/24 07:07:32;;;;;;;8.18;4.85;;;;;;;10.60;100.00;100052.00;4880111;29;20121;-92
2023/10/24 07:09:58;;;;;;;5.25;4.68;;;;;;;10.62;100.00;100047.22;4880339;29;20089;-85
2023/10/24 07:12:28;;;;;;;5.38;4.80;;;;;;;10.58;100.00;100035.28;4887603;29;20045;-92
2023/10/24 07:15:09;;;;;;;5.00;4.45;;;;;;;10.54;100.00;100042.94;4870147;29;20037;-90
2023/10/24 07:17:53;;;;;;;4.95;4.45;;;;;;;10.49;100.00;100023.94;4881679;29;20041;-94
2023/10/24 07:20:46;;;;;;;4.05;3.50;;;;;;;10.49;100.00;100042.78;4880913;29;20049;-88
2023/10/24 07:23:12;;;;;;;4.45;3.80;;;;;;;10.49;100.00;100055.41;4873687;29;20056;-88
2023/10/24 07:25:37;;;;;;;4.20;3.58;;;;;;;10.57;100.00;100036.31;4940346;28;20039;-86
2023/10/24 07:28:04;;;;;;;5.38;3.50;;;;;;;10.58;100.00;100048.72;4956983;28;20387;-85
2023/10/24 07:30:30;;;;;;;4.65;3.30;;;;;;;10.55;100.00;100057.22;4955115;28;20035;-85
2023/10/24 07:32:55;;;;;;;4.93;3.55;;;;;;;10.58;100.00;100049.53;4955094;28;20023;-85
2023/10/24 07:35:21;;;;;;;3.50;3.20;;;;;;;10.56;100.00;100053.50;4957575;28;20038;-84
2023/10/24 07:37:47;;;;;;;6.05;3.65;;;;;;;10.50;100.00;100036.34;4953933;28;20023;-85
2023/10/24 07:40:12;;;;;;;3.78;3.40;;;;;;;10.53;100.00;100041.28;4964390;28;20134;-87
2023/10/24 07:42:38;;;;;;;3.55;3.03;;;;;;;10.53;100.00;100046.66;4956256;28;20042;-84
2023/10/24 07:45:03;;;;;;;4.93;3.40;;;;;;;10.56;100.00;100040.06;4954741;28;20110;-85
2023/10/24 07:50:05;;;;;;;3.92;3.53;;;;;;;10.58;100.00;100032.59;4943479;23;20088;-84
2023/10/24 07:52:32;;;;;;;5.28;4.20;;;;;;;10.59;100.00;100039.63;4919754;29;20044;-83
2023/10/24 07:54:58;;;;;;;6.43;4.28;;;;;;;10.53;100.00;100025.13;4918619;29;20028;-84
2023/10/24 07:57:23;;;;;;;4.85;4.05;;;;;;;10.45;100.00;100020.84;4919065;29;20028;-83
2023/10/24 07:59:48;;;;;;;5.63;4.50;;;;;;;10.59;100.00;100018.09;4916637;29;20094;-86
2023/10/24 08:02:14;;;;;;;6.03;4.25;;;;;;;10.66;100.00;100016.16;4926128;29;20087;-85
2023/10/24 08:04:42;;;;;;;4.95;4.25;;;;;;;10.74;100.00;100005.13;4919626;29;20032;-86
2023/10/24 08:07:08;;;;;;;5.70;4.40;;;;;;;10.77;100.00;100009.25;4919751;29;20875;-86
2023/10/24 08:10:05;;;;;;;5.28;4.50;;;;;;;10.81;100.00;100001.53;4895869;29;20032;-86
2023/10/24 08:12:36;;;;;;;5.60;4.53;;;;;;;10.77;100.00;99991.22;4840948;29;20064;-86
2023/10/24 08:15:01;;;;;;;6.57;4.57;;;;;;;10.85;100.00;99994.69;4845386;29;20046;-86
2023/10/24 08:17:27;;;;;;;6.45;4.72;;;;;;;10.85;100.00;99989.31;4888105;29;20036;-85
2023/10/24 08:19:52;;;;;;;7.70;4.72;;;;;;;10.93;100.00;99997.13;4907858;29;20115;-84
2023/10/24 08:29:29;;;;;;;5.97;4.95;;;;;;;11.04;100.00;100000.94;4916639;29;20571;-84
2023/10/24 08:32:07;;;;;;;5.45;4.65;;;;;;;11.07;100.00;100000.50;4841636;29;20133;-86
2023/10/24 08:34:48;;;;;;;6.65;4.90;;;;;;;11.10;100.00;99997.38;4838180;29;20529;-84
2023/10/24 08:40:47;;;;;;;7.30;4.82;;;;;;;11.26;100.00;100017.53;4834951;29;20064;-84
2023/10/24 08:43:50;;;;;;;5.75;5.07;;;;;;;11.25;99.98;100021.28;4862042;29;20044;-84
2023/10/24 08:46:47;;;;;;;7.75;4.93;;;;;;;11.41;99.49;100016.34;4911202;29;20020;-82
2023/10/24 08:49:13;;;;;;;5.80;4.57;;;;;;;11.56;97.74;100016.81;4876836;29;20524;-84
2023/10/24 08:52:30;;;;;;;5.60;4.70;;;;;;;11.77;95.49;100022.78;4904398;29;20075;-83
2023/10/24 08:55:23;;;;;;;7.80;4.87;;;;;;;11.78;96.20;100036.03;4807744;29;20054;-83
2023/10/24 08:57:51;;;;;;;7.22;5.03;;;;;;;11.91;95.30;100037.75;5559577;23;20018;-84
2023/10/24 09:00:17;;;;;;;5.43;4.68;;;;;;;11.97;94.65;100036.88;4909650;29;20044;-83
2023/10/24 09:02:43;;;;;;;5.47;4.82;;;;;;;12.08;93.90;100040.72;4929051;29;20043;-83
2023/10/24 09:05:10;;;;;;;5.07;4.40;;;;;;;12.19;92.74;100047.19;4925999;29;20119;-84
2023/10/24 09:07:36;;;;;;;6.47;4.80;;;;;;;12.34;91.55;100037.88;4920373;29;20478;-84
2023/10/24 09:10:05;;;;;;;5.43;4.88;;;;;;;12.27;92.07;100055.00;4925155;29;20051;-86
2023/10/24 09:12:30;;;;;;;5.32;4.78;;;;;;;12.20;92.10;100050.72;4928105;29;20043;-84
2023/10/24 09:14:56;;;;;;;5.65;4.82;;;;;;;12.14;93.68;100055.16;4936486;29;20054;-85
2023/10/24 09:17:22;;;;;;;6.13;5.20;;;;;;;12.23;93.01;100051.09;4931648;29;20028;-84
2023/10/24 09:19:50;;;;;;;5.65;4.95;;;;;;;12.32;92.27;100042.69;4920796;29;20118;-85
2023/10/24 09:22:21;;;;;;;5.70;4.78;;;;;;;12.40;92.23;100051.28;4926323;29;20032;-85
2023/10/24 09:24:47;;;;;;;5.20;4.63;;;;;;;12.45;92.51;100042.50;4932268;29;20035;-85
2023/10/24 09:32:23;;;;;;;7.43;4.68;;;;;;;12.77;90.74;100030.63;5808886;23;20065;-83
2023/10/24 09:34:48;;;;;;;5.43;4.63;;;;;;;12.91;88.37;100020.41;4958099;28;20030;-83
2023/10/24 09:37:16;;;;;;;5.40;4.53;;;;;;;12.88;87.98;100014.41;4958564;28;20468;-85
2023/10/24 09:40:03;;;;;;;5.88;4.43;;;;;;;12.92;88.46;100016.66;4955503;28;20072;-83
2023/10/24 09:42:38;;;;;;;6.15;4.80;;;;;;;13.25;87.11;100009.84;4950909;28;20035;-84
2023/10/24 09:45:05;;;;;;;5.10;4.60;;;;;;;13.10;87.77;100019.25;4961684;28;20471;-84
2023/10/24 09:47:31;;;;;;;5.13;4.38;;;;;;;13.18;87.47;100016.22;4954478;28;20068;-84
2023/10/24 09:49:59;;;;;;;5.50;4.20;;;;;;;13.15;86.15;100005.88;4954163;28;20400;-85
2023/10/24 09:52:25;;;;;;;5.93;4.25;;;;;;;13.09;86.56;100012.19;4953885;28;20039;-84
2023/10/24 09:54:53;;;;;;;6.18;4.90;;;;;;;13.17;87.86;100025.38;4954713;28;20130;-83
2023/10/24 09:57:19;;;;;;;6.10;4.70;;;;;;;13.23;85.82;100010.09;4955313;28;20038;-84
2023/10/24 09:59:46;;;;;;;4.80;4.18;;;;;;;13.14;86.31;100014.22;4952833;28;20472;-83
2023/10/24 10:02:11;;;;;;;5.00;4.20;;;;;;;13.15;85.77;100015.84;4959321;28;20057;-88
2023/10/24 10:04:37;;;;;;;5.93;4.15;;;;;;;13.12;86.93;100025.25;4943885;28;20037;-87
2023/10/24 10:07:03;;;;;;;4.50;4.10;;;;;;;13.14;86.27;100019.63;4937105;29;20027;-86
2023/10/24 10:09:28;;;;;;;4.88;4.38;;;;;;;13.28;86.75;100025.59;4961164;28;20316;-85
2023/10/24 10:11:54;;;;;;;6.03;5.15;;;;;;;13.49;86.43;100022.34;5013808;23;20106;-84
2023/10/24 10:14:31;;;;;;;4.30;3.90;;;;;;;13.69;85.33;100017.59;4942528;28;20035;-84
2023/10/24 10:17:10;;;;;;;6.13;4.20;;;;;;;13.86;85.31;100014.97;4933288;28;20698;-84
2023/10/24 10:19:52;;;;;;;6.13;4.13;;;;;;;13.83;83.07;100010.03;4927494;28;20068;-84
2023/10/24 10:22:34;;;;;;;4.97;4.10;;;;;;;13.63;83.87;100019.38;4934906;28;20034;-83
2023/10/24 10:25:34;;;;;;;5.78;3.60;;;;;;;13.82;84.21;100019.22;4942403;28;20024;-84
2023/10/24 10:28:17;;;;;;;5.47;4.10;;;;;;;13.68;83.21;100010.56;4933282;28;20078;-84
2023/10/24 10:30:57;;;;;;;4.65;4.05;;;;;;;13.47;84.04;100019.03;4937150;28;20047;-83
2023/10/24 10:33:23;;;;;;;4.40;3.92;;;;;;;13.51;83.67;99999.66;4955500;28;20507;-85
2023/10/24 10:41:32;;;;;;;4.40;3.72;;;;;;;13.69;84.16;100009.47;6017485;23;20033;-84
2023/10/24 10:44:01;;;;;;;5.45;3.78;;;;;;;13.73;83.36;99983.59;4904174;29;20026;-84
2023/10/24 10:46:30;;;;;;;11.00;4.43;;;;;;;13.26;85.04;99984.47;4920981;29;20091;-83
2023/10/24 10:48:56;;;;;;;4.45;3.70;;;;;;;13.48;85.26;99980.13;4914551;29;20425;-84
2023/10/24 10:51:28;;;;;;;5.00;3.50;;;;;;;13.68;84.82;99984.31;4917761;29;20123;-84
2023/10/24 10:54:04;;;;;;;4.55;3.70;;;;;;;13.58;83.18;99982.22;4898610;29;20071;-84
2023/10/24 10:56:31;;;;;;;5.82;4.00;;;;;;;13.46;84.09;99984.13;4905045;29;20028;-84
2023/10/24 10:59:12;;;;;;;4.72;3.80;;;;;;;13.29;85.45;99974.03;4884683;29;21776;-84
2023/10/24 11:01:50;;;;;;;6.00;3.95;;;;;;;13.42;86.20;99978.38;4904060;29;20036;-85
2023/10/24 11:04:16;;;;;;;5.93;3.85;;;;;;;13.57;85.21;99977.06;4878984;29;20488;-84
2023/10/24 11:06:59;;;;;;;4.63;3.65;;;;;;;13.51;84.32;99972.59;4912442;29;20048;-84
2023/10/24 11:09:32;;;;;;;4.10;3.70;;;;;;;13.45;84.45;99980.59;4899397;29;20028;-84
2023/10/24 11:12:22;;;;;;;4.55;3.80;;;;;;;13.48;84.81;99976.63;4911283;29;20039;-84
2023/10/24 11:15:16;;;;;;;4.25;3.60;;;;;;;13.49;83.97;99964.75;4914017;29;20498;-85
2023/10/24 11:17:42;;;;;;;3.95;3.42;;;;;;;13.45;83.60;99958.16;4914586;29;20433;-83
2023/10/24 11:20:08;;;;;;;4.38;3.42;;;;;;;13.43;83.97;99939.47;4913669;29;20242;-84
2023/10/24 11:22:34;;;;;;;4.70;3.47;;;;;;;13.38;84.78;99960.97;4916682;29;20028;-84
2023/10/24 11:24:59;;;;;;;3.60;3.30;;;;;;;13.20;84.69;99959.22;4910083;29;20037;-84
2023/10/24 11:27:24;;;;;;;4.80;3.47;;;;;;;13.15;85.08;99957.22;4914886;29;20174;-84
2023/10/24 11:29:50;;;;;;;3.70;3.40;;;;;;;13.15;85.68;99962.63;4899125;29;20031;-84
2023/10/24 11:32:16;;;;;;;3.85;3.45;;;;;;;13.10;86.73;99969.81;4897621;29;20032;-83
2023/10/24 11:34:41;;;;;;;3.90;3.53;;;;;;;13.08;87.01;99972.72;4909696;29;20465;-83
2023/10/24 11:37:09;;;;;;;5.35;3.63;;;;;;;13.01;87.72;99967.44;4912975;29;20079;-85
2023/10/24 11:39:35;;;;;;;4.55;3.30;;;;;;;12.95;86.92;99967.56;4918517;29;20056;-83
2023/10/24 11:42:02;;;;;;;5.70;3.50;;;;;;;12.96;86.69;99958.41;4915529;29;20040;-84
2023/10/24 11:44:28;;;;;;;4.53;3.50;;;;;;;12.93;87.59;99964.28;4920311;29;20044;-84
2023/10/24 11:46:53;;;;;;;4.38;3.40;;;;;;;12.92;86.65;99954.53;4915855;29;20115;-84
2023/10/24 11:49:18;;;;;;;4.20;3.08;;;;;;;12.90;87.35;99968.28;4916465;29;20042;-84
2023/10/24 11:51:44;;;;;;;3.92;3.40;;;;;;;12.85;87.21;99958.19;4917675;29;20095;-84
2023/10/24 11:54:09;;;;;;;4.20;3.17;;;;;;;12.87;87.97;99960.63;4913920;29;20032;-84
2023/10/24 11:56:34;;;;;;;5.03;2.97;;;;;;;12.84;88.66;99961.94;4890573;29;20556;-84
2023/10/24 11:59:04;;;;;;;5.13;3.38;;;;;;;12.87;88.07;99958.78;4912912;29;20028;-84
2023/10/24 12:05:07;;;;;;;3.30;3.00;;;;;;;12.87;88.89;99960.63;4838107;29;20271;-84
2023/10/24 12:07:33;;;;;;;4.88;3.30;;;;;;;12.88;89.52;99963.09;4875468;29;20131;-83
2023/10/24 12:10:10;;;;;;;3.42;3.13;;;;;;;12.76;88.62;99956.06;4911582;29;20446;-84
2023/10/24 12:12:36;;;;;;;3.88;2.90;;;;;;;12.71;89.05;99960.28;4921147;29;20067;-84
2023/10/24 12:15:04;;;;;;;3.92;3.17;;;;;;;12.64;89.80;99961.44;4900659;29;20047;-84
2023/10/24 12:17:34;;;;;;;5.57;3.35;;;;;;;12.64;90.46;99950.63;4904495;29;20032;-83